createdAt,value
2017-09-20T00:01:55.671Z,24.03
2017-09-20T00:04:23.951Z,21.10
2017-09-20T00:06:52.239Z,21.70
2017-09-20T00:09:20.521Z,22.27
2017-09-20T00:11:48.780Z,28.17
2017-09-20T00:14:17.105Z,22.80
2017-09-20T00:16:45.454Z,24.20
2017-09-20T00:19:13.754Z,22.43
2017-09-20T00:21:42.015Z,24.30
2017-09-20T00:24:10.293Z,22.70
2017-09-20T00:26:38.605Z,24.77
2017-09-20T00:29:06.864Z,23.87
2017-09-20T00:31:35.144Z,22.00
2017-09-20T00:34:03.433Z,23.60
2017-09-20T00:36:31.705Z,25.40
2017-09-20T00:38:59.973Z,26.40
2017-09-20T00:41:28.232Z,24.90
2017-09-20T00:43:56.501Z,23.70
2017-09-20T00:46:25.543Z,25.60
2017-09-20T00:48:53.940Z,22.07
2017-09-20T00:51:22.309Z,25.83
2017-09-20T00:53:50.555Z,25.77
2017-09-20T00:56:18.830Z,23.90
2017-09-20T00:58:47.868Z,23.00
2017-09-20T01:01:16.154Z,26.20
2017-09-20T01:03:44.429Z,25.50
2017-09-20T01:06:12.695Z,23.80
2017-09-20T01:08:40.958Z,25.40
2017-09-20T01:11:09.264Z,25.37
2017-09-20T02:27:54.154Z,20.63
2017-09-20T02:30:23.179Z,19.13
2017-09-20T02:32:51.452Z,22.20
2017-09-20T02:35:19.708Z,22.47
2017-09-20T02:37:48.005Z,23.43
2017-09-20T02:40:16.276Z,24.77
2017-09-20T02:42:44.543Z,21.60
2017-09-20T02:45:13.567Z,24.90
2017-09-20T02:47:41.864Z,25.07
2017-09-20T02:50:10.143Z,24.63
2017-09-20T02:52:38.424Z,22.43
2017-09-20T02:55:06.678Z,22.17
2017-09-20T02:57:34.949Z,20.90
2017-09-20T03:00:03.263Z,21.43
2017-09-20T03:02:31.554Z,22.13
2017-09-20T03:04:59.811Z,23.90
2017-09-20T03:07:28.078Z,20.70
2017-09-20T03:09:56.367Z,22.67
2017-09-20T03:12:24.670Z,21.40
2017-09-20T03:14:52.960Z,21.90
2017-09-20T03:17:21.214Z,21.70
2017-09-20T03:19:49.487Z,22.60
2017-09-20T03:22:17.748Z,25.00
2017-09-20T03:24:46.771Z,25.40
2017-09-20T03:27:15.074Z,21.70
2017-09-20T03:29:43.355Z,21.97
2017-09-20T03:32:11.641Z,23.30
2017-09-20T03:34:40.029Z,21.97
2017-09-20T03:37:08.281Z,20.87
2017-09-20T03:39:36.550Z,21.27
2017-09-20T03:42:04.907Z,22.03
2017-09-20T03:44:33.965Z,21.90
2017-09-20T03:47:02.216Z,22.10
2017-09-20T03:49:30.561Z,23.03
2017-09-20T03:51:59.043Z,20.53
2017-09-20T03:54:27.323Z,22.97
2017-09-20T03:56:55.563Z,22.50
2017-09-20T03:59:24.007Z,23.30
2017-09-20T04:01:53.847Z,22.10
2017-09-20T04:04:22.117Z,22.77
2017-09-20T04:06:51.127Z,21.87
2017-09-20T04:09:19.439Z,20.93
2017-09-20T04:11:47.692Z,19.80
2017-09-20T04:14:15.998Z,22.47
2017-09-20T04:16:44.261Z,22.47
2017-09-20T04:19:12.518Z,21.70
2017-09-20T04:21:41.575Z,21.00
2017-09-20T04:24:09.842Z,22.47
2017-09-20T04:26:38.136Z,22.30
2017-09-20T04:29:06.427Z,23.47
2017-09-20T04:31:34.707Z,25.77
2017-09-20T04:34:03.074Z,25.53
2017-09-20T04:36:31.351Z,25.37
2017-09-20T04:38:59.660Z,25.97
2017-09-20T04:41:28.012Z,25.10
2017-09-20T04:43:56.268Z,24.20
2017-09-20T04:46:24.798Z,25.67
2017-09-20T04:48:53.079Z,24.37
2017-09-20T04:51:21.349Z,24.43
2017-09-20T04:53:49.594Z,25.83
2017-09-20T04:56:17.871Z,23.57
2017-09-20T04:58:46.215Z,25.10
2017-09-20T05:01:14.562Z,24.63
2017-09-20T05:03:42.865Z,25.60
2017-09-20T05:06:11.162Z,23.77
2017-09-20T05:08:39.406Z,25.10
2017-09-20T05:11:07.706Z,24.23
2017-09-20T05:13:35.966Z,25.40
2017-09-20T05:16:04.235Z,23.43
2017-09-20T05:18:32.490Z,23.60
2017-09-20T05:21:01.636Z,23.73
2017-09-20T05:23:29.985Z,23.03
2017-09-20T05:25:58.341Z,23.07
2017-09-20T05:28:26.609Z,23.10
2017-09-20T05:30:54.899Z,20.73
2017-09-20T05:33:23.242Z,24.47
2017-09-20T05:35:51.537Z,23.50
2017-09-20T05:38:19.805Z,25.20
2017-09-20T05:40:48.083Z,22.97
2017-09-20T05:43:16.476Z,24.60
2017-09-20T05:45:44.735Z,23.63
2017-09-20T05:48:13.002Z,24.80
2017-09-20T05:50:41.647Z,22.73
2017-09-20T05:53:10.749Z,26.73
2017-09-20T05:55:39.094Z,24.70
2017-09-20T05:58:07.488Z,23.33
2017-09-20T06:00:35.715Z,24.43
2017-09-20T06:03:04.109Z,23.50
2017-09-20T06:05:32.372Z,24.27
2017-09-20T06:08:00.713Z,25.67
2017-09-20T06:10:28.999Z,25.17
2017-09-20T06:12:57.247Z,23.83
2017-09-20T06:15:25.558Z,24.50
2017-09-20T06:17:53.825Z,24.60
2017-09-20T06:20:22.115Z,25.10
2017-09-20T06:22:50.404Z,25.00
2017-09-20T06:25:18.650Z,27.30
2017-09-20T06:27:46.940Z,26.80
2017-09-20T06:30:15.252Z,29.20
2017-09-20T06:32:43.533Z,26.50
2017-09-20T06:35:11.783Z,26.80
2017-09-20T06:37:40.056Z,28.07
2017-09-20T06:40:08.322Z,25.30
2017-09-20T06:42:37.381Z,26.07
2017-09-20T06:45:05.634Z,28.30
2017-09-20T06:47:33.891Z,26.53
2017-09-20T06:50:02.172Z,25.77
2017-09-20T06:52:30.433Z,26.70
2017-09-20T06:54:59.482Z,24.37
2017-09-20T06:57:27.743Z,26.37
2017-09-20T06:59:56.775Z,24.60
2017-09-20T07:02:25.018Z,27.10
2017-09-20T07:04:53.296Z,26.30
2017-09-20T07:07:21.611Z,26.07
2017-09-20T07:09:49.922Z,27.33
2017-09-20T07:12:18.202Z,27.83
2017-09-20T07:14:46.452Z,28.77
2017-09-20T07:17:14.719Z,28.20
2017-09-20T07:19:42.988Z,30.37
2017-09-20T07:22:11.300Z,31.40
2017-09-20T07:24:39.584Z,31.00
2017-09-20T07:27:07.831Z,32.17
2017-09-20T07:29:36.114Z,31.90
2017-09-20T07:32:04.388Z,33.33
2017-09-20T07:34:32.947Z,33.47
2017-09-20T07:37:02.106Z,30.43
2017-09-20T07:39:30.430Z,33.57
2017-09-20T07:41:58.795Z,32.00
2017-09-20T07:44:27.870Z,33.47
2017-09-20T07:46:56.208Z,35.87
2017-09-20T07:49:24.546Z,32.57
2017-09-20T07:51:53.853Z,31.50
2017-09-20T07:54:22.098Z,32.00
2017-09-20T07:56:50.371Z,32.60
2017-09-20T07:59:18.926Z,33.70
2017-09-20T08:01:47.312Z,33.33
2017-09-20T08:04:15.610Z,33.57
2017-09-20T08:06:44.663Z,33.03
2017-09-20T08:09:12.957Z,31.87
2017-09-20T08:11:41.273Z,32.23
2017-09-20T08:14:09.598Z,34.00
2017-09-20T08:16:37.916Z,35.00
2017-09-20T08:19:06.190Z,34.80
2017-09-20T08:21:34.475Z,32.30
2017-09-20T08:24:04.295Z,35.97
2017-09-20T08:26:33.360Z,31.93
2017-09-20T08:29:01.782Z,29.73
2017-09-20T08:31:30.038Z,31.50
2017-09-20T08:33:58.290Z,31.37
2017-09-20T08:36:26.555Z,30.57
2017-09-20T08:38:54.823Z,31.50
2017-09-20T08:41:23.852Z,31.60
2017-09-20T08:43:52.111Z,30.50
2017-09-20T08:46:21.158Z,31.53
2017-09-20T08:48:49.424Z,30.90
2017-09-20T08:51:17.706Z,30.20
2017-09-20T08:53:45.984Z,33.00
2017-09-20T08:56:14.270Z,38.50
2017-09-20T08:58:42.548Z,33.03
2017-09-20T09:01:10.827Z,31.13
2017-09-20T09:03:39.110Z,30.50
2017-09-20T09:06:07.370Z,30.83
2017-09-20T09:08:35.648Z,29.80
2017-09-20T09:11:03.908Z,31.57
2017-09-20T09:13:32.954Z,30.90
2017-09-20T09:16:01.194Z,31.47
2017-09-20T09:18:30.248Z,30.13
2017-09-20T09:20:58.509Z,31.23
2017-09-20T09:23:26.775Z,31.00
2017-09-20T09:25:55.077Z,30.00
2017-09-20T09:28:23.337Z,28.13
2017-09-20T09:30:51.595Z,29.83
2017-09-20T09:33:20.630Z,29.77
2017-09-20T09:35:48.881Z,28.30
2017-09-20T09:38:17.213Z,30.37
2017-09-20T09:40:45.474Z,28.77
2017-09-20T09:43:13.929Z,30.80
2017-09-20T09:45:42.962Z,29.90
2017-09-20T09:48:11.236Z,30.67
2017-09-20T09:50:39.491Z,29.27
2017-09-20T09:53:07.746Z,27.60
2017-09-20T09:55:39.846Z,27.90
2017-09-20T09:58:08.118Z,30.10
2017-09-20T10:00:37.149Z,28.60
2017-09-20T10:03:05.416Z,28.43
2017-09-20T10:05:33.660Z,30.27
2017-09-20T10:08:02.725Z,28.00
2017-09-20T10:10:30.971Z,26.67
2017-09-20T10:12:59.276Z,27.60
2017-09-20T10:15:27.528Z,26.87
2017-09-20T10:17:56.751Z,25.83
2017-09-20T10:20:25.044Z,28.00
2017-09-20T10:22:53.318Z,33.70
2017-09-20T10:25:21.575Z,28.37
2017-09-20T10:27:49.871Z,30.97
2017-09-20T10:30:18.155Z,26.93
2017-09-20T10:32:46.407Z,26.93
2017-09-20T10:35:14.676Z,25.67
2017-09-20T10:37:43.692Z,27.27
2017-09-20T10:40:12.751Z,27.07
2017-09-20T10:42:41.003Z,25.50
2017-09-20T10:45:09.268Z,25.90
2017-09-20T10:47:37.552Z,26.67
2017-09-20T10:50:05.835Z,28.13
2017-09-20T10:52:34.083Z,27.93
2017-09-20T10:55:02.367Z,28.40
2017-09-20T10:57:31.510Z,26.30
2017-09-20T10:59:59.783Z,25.07
2017-09-20T11:02:28.056Z,25.53
2017-09-20T11:04:56.326Z,26.53
2017-09-20T11:07:24.863Z,24.97
2017-09-20T11:09:53.142Z,26.00
2017-09-20T11:12:21.492Z,25.83
2017-09-20T11:14:49.754Z,28.13
2017-09-20T11:17:18.055Z,25.73
2017-09-20T11:19:46.435Z,25.87
2017-09-20T11:22:14.717Z,26.53
2017-09-20T11:24:43.030Z,26.00
2017-09-20T11:27:11.282Z,26.13
2017-09-20T11:29:39.532Z,24.60
2017-09-20T11:32:07.839Z,26.27
2017-09-20T11:34:36.088Z,28.57
2017-09-20T11:37:04.393Z,25.53
2017-09-20T11:39:32.639Z,24.23
2017-09-20T11:42:01.671Z,24.97
2017-09-20T11:44:29.927Z,23.53
2017-09-20T11:46:58.226Z,24.83
2017-09-20T11:49:26.511Z,24.87
2017-09-20T11:51:54.807Z,24.43
2017-09-20T11:54:23.079Z,22.77
2017-09-20T11:56:51.346Z,23.80
2017-09-20T11:59:19.634Z,23.30
2017-09-20T12:01:47.902Z,22.83
2017-09-20T12:04:16.264Z,23.50
2017-09-20T12:06:45.405Z,24.80
2017-09-20T12:09:13.682Z,25.50
2017-09-20T12:11:41.962Z,24.60
2017-09-20T12:14:10.219Z,23.70
2017-09-20T12:16:38.510Z,23.27
2017-09-20T12:19:06.752Z,22.20
2017-09-20T12:21:35.129Z,24.90
2017-09-20T12:24:03.367Z,24.37
2017-09-20T12:26:31.638Z,26.53
2017-09-20T12:28:59.908Z,29.63
2017-09-20T12:31:28.931Z,28.97
2017-09-20T12:33:57.211Z,28.60
2017-09-20T12:36:25.535Z,28.90
2017-09-20T12:38:53.770Z,30.67
2017-09-20T12:41:22.015Z,24.17
2017-09-20T12:43:51.050Z,24.10
2017-09-20T12:46:19.307Z,26.53
2017-09-20T12:48:47.618Z,20.97
2017-09-20T12:51:15.890Z,20.13
2017-09-20T12:53:44.163Z,13.80
2017-09-20T12:56:12.410Z,12.23
2017-09-20T12:58:41.442Z,11.93
2017-09-20T13:01:09.691Z,10.67
2017-09-20T13:03:38.734Z,7.60
2017-09-20T13:06:06.986Z,9.50
2017-09-20T13:08:35.299Z,10.97
2017-09-20T13:11:03.578Z,12.50
2017-09-20T13:13:32.564Z,12.97
2017-09-20T13:16:00.831Z,12.90
2017-09-20T13:18:29.079Z,12.70
2017-09-20T13:20:57.419Z,12.50
2017-09-20T13:23:25.671Z,15.23
2017-09-20T13:25:54.079Z,19.07
2017-09-20T13:28:22.338Z,21.13
2017-09-20T13:30:50.779Z,13.83
2017-09-20T13:33:19.848Z,16.20
2017-09-20T13:35:48.130Z,18.20
2017-09-20T13:38:16.405Z,18.97
2017-09-20T13:40:46.258Z,23.37
2017-09-20T13:43:14.497Z,17.27
2017-09-20T13:45:42.783Z,17.90
2017-09-20T13:48:11.071Z,17.47
2017-09-20T13:50:39.392Z,17.77
2017-09-20T13:53:07.736Z,19.00
2017-09-20T13:55:36.515Z,21.33
2017-09-20T13:58:04.765Z,20.70
2017-09-20T14:00:33.807Z,22.37
2017-09-20T14:03:02.190Z,19.90
2017-09-20T14:05:30.533Z,20.37
2017-09-20T14:07:59.664Z,21.80
2017-09-20T14:10:27.918Z,22.73
2017-09-20T14:12:56.951Z,22.27
2017-09-20T14:15:25.231Z,22.87
2017-09-20T14:17:53.495Z,22.43
2017-09-20T14:20:21.764Z,21.67
2017-09-20T14:22:50.798Z,22.93
2017-09-20T14:25:19.215Z,20.83
2017-09-20T14:27:47.504Z,22.20
2017-09-20T14:30:17.255Z,21.43
2017-09-20T14:32:45.576Z,21.30
2017-09-20T14:35:13.820Z,21.10
2017-09-20T14:37:42.100Z,20.50
2017-09-20T14:40:10.365Z,21.37
2017-09-20T14:42:39.510Z,21.43
2017-09-20T14:45:07.767Z,20.90
2017-09-20T14:47:36.034Z,20.83
2017-09-20T14:50:04.288Z,23.13
2017-09-20T14:52:32.562Z,20.90
2017-09-20T14:55:00.944Z,21.17
2017-09-20T14:57:29.291Z,22.60
2017-09-20T14:59:57.568Z,22.33
2017-09-20T15:02:25.865Z,19.73
2017-09-20T15:04:54.111Z,19.60
2017-09-20T15:07:22.381Z,20.13
2017-09-20T15:09:51.443Z,19.13
2017-09-20T15:12:19.798Z,19.00
2017-09-20T15:14:48.064Z,18.93
2017-09-20T15:17:16.493Z,19.37
2017-09-20T15:19:44.849Z,18.80
2017-09-20T15:22:13.104Z,19.60
2017-09-20T15:24:41.404Z,18.40
2017-09-20T15:27:09.657Z,19.33
2017-09-20T15:29:37.925Z,18.80
2017-09-20T15:32:07.223Z,18.03
2017-09-20T15:34:36.279Z,17.00
2017-09-20T15:37:04.590Z,15.30
2017-09-20T15:39:33.631Z,17.90
2017-09-20T15:42:01.883Z,17.23
2017-09-20T15:44:30.920Z,17.57
2017-09-20T15:46:59.345Z,17.30
2017-09-20T15:49:27.596Z,16.70
2017-09-20T15:51:55.869Z,17.23
2017-09-20T15:54:24.163Z,18.13
2017-09-20T15:56:52.414Z,18.67
2017-09-20T15:59:20.723Z,16.50
2017-09-20T16:01:48.966Z,19.27
2017-09-20T16:04:17.226Z,17.00
2017-09-20T16:06:45.491Z,14.40
2017-09-20T16:09:13.735Z,15.27
2017-09-20T16:11:42.006Z,15.77
2017-09-20T16:14:10.320Z,13.90
2017-09-20T16:16:38.590Z,13.80
2017-09-20T16:19:06.850Z,14.10
2017-09-20T16:21:35.150Z,10.63
2017-09-20T16:24:03.408Z,10.67
2017-09-20T16:26:31.680Z,10.57
2017-09-20T16:28:59.936Z,11.60
2017-09-20T16:31:28.972Z,11.70
2017-09-20T16:33:57.224Z,9.10
2017-09-20T16:36:26.951Z,8.90
2017-09-20T16:38:55.958Z,9.47
2017-09-20T16:41:24.218Z,10.60
2017-09-20T16:43:53.241Z,10.50
2017-09-20T16:46:21.539Z,8.83
2017-09-20T16:48:49.796Z,9.23
2017-09-20T16:51:18.063Z,8.10
2017-09-20T16:53:47.091Z,10.57
2017-09-20T16:56:15.351Z,10.70
2017-09-20T16:58:43.622Z,8.50
2017-09-20T17:01:12.647Z,8.33
2017-09-20T17:03:40.885Z,8.97
2017-09-20T17:06:11.167Z,9.27
2017-09-20T17:08:39.410Z,8.63
2017-09-20T17:11:08.431Z,9.03
2017-09-20T17:13:36.679Z,8.90
2017-09-20T17:16:05.718Z,8.67
2017-09-20T17:18:34.002Z,8.70
2017-09-20T17:21:02.278Z,8.60
2017-09-20T17:23:30.575Z,7.90
2017-09-20T17:25:58.831Z,9.43
2017-09-20T17:28:27.126Z,10.10
2017-09-20T17:30:55.422Z,9.03
2017-09-20T17:33:23.688Z,9.77
2017-09-20T17:35:51.931Z,9.50
2017-09-20T17:38:21.015Z,9.57
2017-09-20T17:40:49.245Z,9.90
2017-09-20T17:43:17.500Z,9.97
2017-09-20T17:45:45.754Z,9.27
2017-09-20T17:48:14.781Z,9.97
2017-09-20T17:50:43.088Z,11.03
2017-09-20T17:53:11.364Z,10.93
2017-09-20T17:55:39.618Z,10.90
2017-09-20T17:58:07.938Z,10.93
2017-09-20T18:00:36.207Z,13.02
2017-09-20T18:03:04.466Z,13.80
2017-09-20T18:05:32.726Z,12.00
2017-09-20T18:08:01.751Z,12.43
2017-09-20T18:10:30.011Z,11.43
2017-09-20T18:12:59.038Z,12.33
2017-09-20T18:15:27.290Z,12.57
2017-09-20T18:17:56.446Z,12.33
2017-09-20T18:20:24.694Z,12.73
2017-09-20T18:22:52.996Z,13.60
2017-09-20T18:25:21.282Z,13.10
2017-09-20T18:27:49.560Z,13.27
2017-09-20T18:30:17.834Z,13.20
2017-09-20T18:32:46.082Z,15.10
2017-09-20T18:35:14.366Z,13.53
2017-09-20T18:37:43.382Z,15.07
2017-09-20T18:40:11.651Z,13.43
2017-09-20T18:42:39.964Z,12.83
2017-09-20T18:45:08.235Z,15.60
2017-09-20T18:47:36.478Z,13.27
2017-09-20T18:50:05.515Z,14.40
2017-09-20T18:52:33.794Z,14.30
2017-09-20T18:55:02.078Z,15.83
2017-09-20T18:57:30.330Z,16.50
2017-09-20T18:59:58.593Z,16.20
2017-09-20T19:02:27.610Z,14.97
2017-09-20T19:04:55.893Z,16.43
2017-09-20T19:07:24.211Z,14.93
2017-09-20T19:09:52.501Z,15.77
2017-09-20T19:12:20.769Z,15.70
2017-09-20T19:14:49.035Z,16.63
2017-09-20T19:17:17.282Z,17.90
2017-09-20T19:19:45.555Z,16.17
2017-09-20T19:22:14.574Z,17.77
2017-09-20T19:24:42.837Z,16.60
2017-09-20T19:27:11.846Z,16.33
2017-09-20T19:29:40.114Z,16.70
2017-09-20T19:32:09.135Z,17.10
2017-09-20T19:34:37.401Z,18.10
2017-09-20T19:37:06.420Z,17.37
2017-09-20T19:39:34.695Z,16.63
2017-09-20T19:42:02.978Z,16.40
2017-09-20T19:44:31.280Z,17.90
2017-09-20T19:46:59.654Z,17.50
2017-09-20T19:49:27.940Z,17.67
2017-09-20T19:51:56.215Z,19.27
2017-09-20T19:54:24.461Z,18.10
2017-09-20T19:56:53.495Z,18.80
2017-09-20T19:59:21.750Z,18.40
2017-09-20T20:01:53.148Z,16.43
2017-09-20T20:04:22.041Z,18.33
2017-09-20T20:06:50.308Z,17.70
2017-09-20T20:09:18.560Z,16.93
2017-09-20T20:11:47.611Z,16.80
2017-09-20T20:14:15.895Z,17.03
2017-09-20T20:16:44.163Z,16.50
2017-09-20T20:19:12.419Z,16.17
2017-09-20T20:21:40.726Z,16.30
2017-09-20T20:24:08.979Z,16.57
2017-09-20T20:26:37.243Z,15.93
2017-09-20T20:29:06.292Z,17.97
2017-09-20T20:31:34.550Z,15.13
2017-09-20T20:34:02.872Z,18.37
2017-09-20T20:36:31.124Z,16.17
2017-09-20T20:38:59.390Z,17.60
2017-09-20T20:41:28.505Z,18.60
2017-09-20T20:43:56.799Z,16.47
2017-09-20T20:46:25.078Z,17.13
2017-09-20T20:48:53.349Z,16.70
2017-09-20T20:51:21.630Z,17.30
2017-09-20T20:53:49.943Z,16.70
2017-09-20T20:56:18.976Z,16.80
2017-09-20T20:58:48.012Z,16.50
2017-09-20T21:01:16.305Z,17.87
2017-09-20T21:03:44.581Z,16.30
2017-09-20T21:06:12.836Z,16.67
2017-09-20T21:08:41.105Z,18.67
2017-09-20T21:11:10.117Z,17.43
2017-09-20T21:13:38.391Z,17.63
2017-09-20T21:16:06.651Z,16.70
2017-09-20T21:18:35.683Z,18.20
2017-09-20T21:21:03.939Z,15.73
2017-09-20T21:23:33.672Z,16.67
2017-09-20T21:26:01.979Z,17.73
2017-09-20T21:28:30.256Z,17.67
2017-09-20T21:30:58.514Z,16.60
2017-09-20T21:33:26.819Z,16.63
2017-09-20T21:35:55.076Z,18.10
2017-09-20T21:38:23.339Z,17.50
2017-09-20T21:40:52.351Z,18.33
2017-09-20T21:43:21.230Z,17.20
2017-09-20T21:45:50.272Z,17.10
2017-09-20T21:48:18.557Z,17.80
2017-09-20T21:50:46.810Z,17.60
2017-09-20T21:53:15.083Z,17.53
2017-09-20T21:55:44.101Z,17.60
2017-09-20T21:58:12.365Z,18.40
2017-09-20T22:00:40.676Z,18.57
2017-09-20T22:03:08.966Z,19.47
2017-09-20T22:05:37.241Z,19.07
2017-09-20T22:08:05.514Z,17.30
2017-09-20T22:10:33.807Z,17.10
2017-09-20T22:13:02.056Z,18.90
2017-09-20T22:15:42.450Z,17.20
2017-09-20T22:18:29.471Z,17.63
2017-09-20T22:21:15.542Z,17.83
2017-09-20T22:24:01.760Z,18.73
2017-09-20T22:26:44.555Z,17.87
2017-09-20T22:29:12.587Z,18.43
2017-09-20T22:31:40.856Z,16.80
2017-09-20T22:34:09.140Z,16.03
2017-09-20T22:36:37.440Z,18.30
2017-09-20T22:39:05.724Z,17.60
2017-09-20T22:41:33.993Z,17.10
2017-09-20T22:44:02.263Z,17.77
2017-09-20T22:46:30.553Z,20.80
2017-09-20T22:48:58.924Z,18.63
2017-09-20T22:51:27.192Z,19.63
2017-09-20T22:53:55.474Z,18.57
2017-09-20T22:56:23.739Z,17.93
2017-09-20T22:58:52.038Z,18.10
2017-09-20T23:01:20.320Z,18.00
2017-09-20T23:03:48.583Z,19.10
2017-09-20T23:06:16.892Z,17.40
2017-09-20T23:08:45.168Z,18.80
2017-09-20T23:11:13.438Z,18.67
2017-09-20T23:13:41.695Z,19.53
2017-09-20T23:16:09.983Z,19.40
2017-09-20T23:18:38.295Z,18.40
2017-09-20T23:21:06.570Z,18.40
2017-09-20T23:23:34.815Z,18.40
2017-09-20T23:26:03.855Z,17.77
2017-09-20T23:28:32.116Z,17.90
2017-09-20T23:31:00.386Z,19.50
2017-09-20T23:33:28.640Z,17.53
2017-09-20T23:35:56.988Z,20.80
2017-09-20T23:38:25.263Z,19.73
2017-09-20T23:40:53.579Z,23.03
2017-09-20T23:43:21.841Z,19.93
2017-09-20T23:45:50.111Z,20.87
2017-09-20T23:48:18.396Z,19.67
2017-09-20T23:50:47.332Z,19.50
2017-09-20T23:53:16.402Z,19.53
2017-09-20T23:55:44.772Z,19.33
2017-09-20T23:58:13.038Z,18.90
